BAW654 EGLL-LGSA
Flight info
| Callsign | BAW654 |
|---|---|
| Flight time | N/A |
| Altitude | 35000 |
| Route | DET1J DET L6 DVR UL9 KONAN DCT KOK DCT SISGA DCT KOMOB DCT EDISA DCT PICWI DCT UTABA DCT BEMKI DCT ELMEM DCT DIRAB DCT VESAL DCT VAKSU DCT DIMIS UL604 DILMO/N0397F230 L604 PLH PLH1W |
| Aircraft | A320/M-SDE3FGIJ1KRWXY/SB1 |
Departure
| Time | N/A |
|---|---|
| Airport | London Heathrow Airport (EGLL) |
Arrival
| Time | 2026-04-29 20:10 |
|---|---|
| Airport | Chania International Airport (LGSA) |
| Time | Latitude | Longitude | Altitude | Speed | Heading |
|---|---|---|---|---|---|
| 2026-04-29 19:36 | 37.25343 | 22.43568 | 37119 ft | 483 kts | 158° |
| 2026-04-29 19:37 | 37.22377 | 22.45440 | 37125 ft | 483 kts | 157° |
| 2026-04-29 19:37 | 37.16372 | 22.49231 | 37124 ft | 483 kts | 157° |
| 2026-04-29 19:38 | 37.10355 | 22.53033 | 37108 ft | 484 kts | 158° |
| 2026-04-29 19:38 | 37.04337 | 22.56828 | 37107 ft | 485 kts | 158° |
| 2026-04-29 19:39 | 36.98308 | 22.60618 | 37102 ft | 485 kts | 158° |
| 2026-04-29 19:39 | 36.92254 | 22.64405 | 37110 ft | 485 kts | 158° |
| 2026-04-29 19:40 | 36.86237 | 22.68161 | 37090 ft | 486 kts | 158° |
| 2026-04-29 19:40 | 36.80187 | 22.71945 | 37093 ft | 487 kts | 158° |
| 2026-04-29 19:41 | 36.74123 | 22.75739 | 37097 ft | 487 kts | 158° |
| 2026-04-29 19:41 | 36.68050 | 22.79517 | 37100 ft | 487 kts | 158° |
| 2026-04-29 19:42 | 36.61969 | 22.83293 | 37081 ft | 488 kts | 158° |
| 2026-04-29 19:42 | 36.55888 | 22.87069 | 37080 ft | 489 kts | 158° |
| 2026-04-29 19:43 | 36.49837 | 22.90820 | 37087 ft | 490 kts | 158° |
| 2026-04-29 19:43 | 36.43728 | 22.94601 | 37094 ft | 490 kts | 158° |
| 2026-04-29 19:44 | 36.37616 | 22.98371 | 37100 ft | 490 kts | 158° |
| 2026-04-29 19:44 | 36.32536 | 23.01509 | 37088 ft | 491 kts | 159° |
| 2026-04-29 19:45 | 36.26418 | 23.05281 | 37095 ft | 491 kts | 159° |
| 2026-04-29 19:45 | 36.20282 | 23.09049 | 37099 ft | 492 kts | 159° |
| 2026-04-29 19:46 | 36.14136 | 23.12815 | 37107 ft | 492 kts | 159° |
| 2026-04-29 19:46 | 36.08050 | 23.16535 | 37113 ft | 491 kts | 159° |
| 2026-04-29 19:47 | 36.01934 | 23.20267 | 37122 ft | 488 kts | 159° |
| 2026-04-29 19:47 | 35.95857 | 23.23978 | 37124 ft | 486 kts | 159° |
| 2026-04-29 19:48 | 35.89823 | 23.27651 | 37125 ft | 485 kts | 159° |
| 2026-04-29 19:48 | 35.83781 | 23.31330 | 37103 ft | 484 kts | 159° |
| 2026-04-29 19:49 | 35.77726 | 23.35012 | 37100 ft | 484 kts | 159° |
| 2026-04-29 19:49 | 35.71713 | 23.38653 | 36999 ft | 485 kts | 159° |
| 2026-04-29 19:49 | 35.68644 | 23.40503 | 35921 ft | 497 kts | 159° |
| 2026-04-29 19:50 | 35.65508 | 23.42388 | 34938 ft | 506 kts | 158° |
| 2026-04-29 19:50 | 35.62330 | 23.44305 | 34168 ft | 509 kts | 158° |
| 2026-04-29 19:50 | 35.59150 | 23.46231 | 33372 ft | 510 kts | 158° |
| 2026-04-29 19:50 | 35.55957 | 23.48162 | 32503 ft | 512 kts | 158° |
| 2026-04-29 19:51 | 35.52791 | 23.50072 | 31764 ft | 511 kts | 157° |
| 2026-04-29 19:51 | 35.49598 | 23.51999 | 31066 ft | 510 kts | 157° |
| 2026-04-29 19:51 | 35.46414 | 23.53917 | 30397 ft | 507 kts | 157° |
| 2026-04-29 19:51 | 35.43254 | 23.55817 | 29744 ft | 503 kts | 157° |
| 2026-04-29 19:52 | 35.40122 | 23.57700 | 29094 ft | 499 kts | 157° |
| 2026-04-29 19:52 | 35.37014 | 23.59565 | 28472 ft | 494 kts | 157° |
| 2026-04-29 19:52 | 35.33939 | 23.61411 | 27851 ft | 489 kts | 157° |
| 2026-04-29 19:52 | 35.30974 | 23.63414 | 27206 ft | 487 kts | 145° |
| 2026-04-29 19:53 | 35.28619 | 23.66364 | 26666 ft | 485 kts | 124° |
| 2026-04-29 19:53 | 35.27210 | 23.70067 | 26065 ft | 479 kts | 103° |
| 2026-04-29 19:53 | 35.26907 | 23.74065 | 25459 ft | 468 kts | 81° |
| 2026-04-29 19:53 | 35.27726 | 23.77836 | 24873 ft | 454 kts | 59° |
| 2026-04-29 19:54 | 35.31307 | 23.83929 | 23687 ft | 437 kts | 43° |
| 2026-04-29 19:54 | 35.33363 | 23.86654 | 23043 ft | 434 kts | 43° |
| 2026-04-29 19:54 | 35.35388 | 23.89384 | 22401 ft | 431 kts | 45° |
| 2026-04-29 19:55 | 35.37309 | 23.92179 | 21834 ft | 427 kts | 47° |
| 2026-04-29 19:55 | 35.39127 | 23.95048 | 21272 ft | 424 kts | 50° |
| 2026-04-29 19:55 | 35.40861 | 23.97961 | 20741 ft | 421 kts | 52° |
| 2026-04-29 19:55 | 35.42538 | 24.00876 | 20215 ft | 417 kts | 52° |
| 2026-04-29 19:56 | 35.44199 | 24.03777 | 19719 ft | 413 kts | 52° |
| 2026-04-29 19:56 | 35.45834 | 24.06601 | 19242 ft | 409 kts | 52° |
| 2026-04-29 19:56 | 35.47479 | 24.09415 | 18803 ft | 404 kts | 53° |
| 2026-04-29 19:56 | 35.49119 | 24.12158 | 18610 ft | 390 kts | 49° |
| 2026-04-29 19:57 | 35.51145 | 24.14218 | 18498 ft | 372 kts | 25° |
| 2026-04-29 19:57 | 35.52768 | 24.14886 | 18429 ft | 359 kts | 7° |
| 2026-04-29 19:57 | 35.55892 | 24.14355 | 18249 ft | 337 kts | 331° |
| 2026-04-29 19:57 | 35.57639 | 24.12558 | 18002 ft | 326 kts | 303° |
| 2026-04-29 19:58 | 35.58654 | 24.10092 | 17606 ft | 323 kts | 292° |
| 2026-04-29 19:58 | 35.59506 | 24.07543 | 17192 ft | 321 kts | 292° |
| 2026-04-29 19:58 | 35.60353 | 24.05005 | 16792 ft | 319 kts | 292° |
| 2026-04-29 19:58 | 35.61178 | 24.02527 | 16148 ft | 315 kts | 292° |
| 2026-04-29 19:59 | 35.62082 | 24.00089 | 15498 ft | 312 kts | 298° |
| 2026-04-29 19:59 | 35.63215 | 23.97827 | 14877 ft | 309 kts | 304° |
| 2026-04-29 19:59 | 35.64457 | 23.95692 | 14271 ft | 306 kts | 306° |
| 2026-04-29 19:59 | 35.65729 | 23.93610 | 13653 ft | 303 kts | 307° |
| 2026-04-29 20:00 | 35.66975 | 23.91571 | 13319 ft | 289 kts | 306° |
| 2026-04-29 20:00 | 35.68136 | 23.89636 | 13074 ft | 275 kts | 306° |
| 2026-04-29 20:00 | 35.69244 | 23.87746 | 12608 ft | 270 kts | 304° |
| 2026-04-29 20:00 | 35.70174 | 23.85783 | 12091 ft | 268 kts | 296° |
| 2026-04-29 20:01 | 35.70972 | 23.83726 | 11570 ft | 267 kts | 295° |
| 2026-04-29 20:01 | 35.71752 | 23.81650 | 11060 ft | 266 kts | 295° |
| 2026-04-29 20:01 | 35.72523 | 23.79583 | 10557 ft | 265 kts | 295° |
| 2026-04-29 20:01 | 35.73285 | 23.77525 | 10069 ft | 264 kts | 295° |
| 2026-04-29 20:02 | 35.74042 | 23.75473 | 9535 ft | 262 kts | 295° |
| 2026-04-29 20:02 | 35.74654 | 23.73372 | 9009 ft | 261 kts | 277° |
| 2026-04-29 20:02 | 35.74514 | 23.71162 | 8593 ft | 262 kts | 252° |
| 2026-04-29 20:02 | 35.73998 | 23.69824 | 8402 ft | 262 kts | 236° |
| 2026-04-29 20:03 | 35.72106 | 23.67934 | 7860 ft | 276 kts | 200° |
| 2026-04-29 20:03 | 35.70189 | 23.67605 | 7735 ft | 283 kts | 173° |
| 2026-04-29 20:03 | 35.68345 | 23.68393 | 7576 ft | 283 kts | 145° |
| 2026-04-29 20:03 | 35.67019 | 23.70115 | 7313 ft | 277 kts | 117° |
| 2026-04-29 20:04 | 35.66314 | 23.72306 | 7034 ft | 274 kts | 108° |
| 2026-04-29 20:04 | 35.65687 | 23.74519 | 6752 ft | 272 kts | 108° |
| 2026-04-29 20:04 | 35.65062 | 23.76712 | 6474 ft | 271 kts | 108° |
| 2026-04-29 20:04 | 35.64441 | 23.78893 | 6182 ft | 269 kts | 108° |
| 2026-04-29 20:05 | 35.63822 | 23.81064 | 5898 ft | 267 kts | 108° |
| 2026-04-29 20:05 | 35.63216 | 23.83182 | 5623 ft | 265 kts | 109° |
| 2026-04-29 20:05 | 35.62601 | 23.85318 | 5350 ft | 263 kts | 109° |
| 2026-04-29 20:05 | 35.61992 | 23.87434 | 5081 ft | 262 kts | 109° |
| 2026-04-29 20:06 | 35.61390 | 23.89534 | 4810 ft | 260 kts | 109° |
| 2026-04-29 20:06 | 35.60793 | 23.91621 | 4533 ft | 258 kts | 109° |
| 2026-04-29 20:06 | 35.60188 | 23.93693 | 4215 ft | 257 kts | 110° |
| 2026-04-29 20:06 | 35.59530 | 23.95755 | 3811 ft | 260 kts | 111° |
| 2026-04-29 20:07 | 35.58842 | 23.97823 | 3427 ft | 263 kts | 112° |
| 2026-04-29 20:07 | 35.58140 | 23.99915 | 3014 ft | 266 kts | 112° |
| 2026-04-29 20:07 | 35.57436 | 24.02020 | 2608 ft | 269 kts | 112° |
| 2026-04-29 20:07 | 35.56743 | 24.04099 | 2197 ft | 259 kts | 112° |
| 2026-04-29 20:08 | 35.56079 | 24.06098 | 1815 ft | 245 kts | 112° |
| 2026-04-29 20:08 | 35.55659 | 24.07361 | 1577 ft | 237 kts | 112° |
| 2026-04-29 20:08 | 35.54859 | 24.09780 | 1105 ft | 220 kts | 112° |
| 2026-04-29 20:08 | 35.54303 | 24.11459 | 789 ft | 210 kts | 112° |
| 2026-04-29 20:09 | 35.53766 | 24.13094 | 490 ft | 201 kts | 110° |
| 2026-04-29 20:09 | 35.53303 | 24.14577 | 454 ft | 164 kts | 112° |
| 2026-04-29 20:09 | 35.52948 | 24.15657 | 469 ft | 110 kts | 111° |
| 2026-04-29 20:09 | 35.52730 | 24.16336 | 481 ft | 61 kts | 111° |
| 2026-04-29 20:10 | 35.52590 | 24.16767 | 490 ft | 43 kts | 111° |
| 2026-04-29 20:10 | 35.52593 | 24.16834 | 489 ft | 6 kts | 14° |
| 2026-04-29 20:10 | 35.52655 | 24.16853 | 493 ft | 11 kts | 14° |
| 2026-04-29 20:10 | 35.52733 | 24.16861 | 482 ft | 13 kts | 328° |
| 2026-04-29 20:11 | 35.52779 | 24.16751 | 483 ft | 17 kts | 291° |
| 2026-04-29 20:11 | 35.52825 | 24.16604 | 485 ft | 20 kts | 291° |
| 2026-04-29 20:11 | 35.52871 | 24.16459 | 484 ft | 19 kts | 291° |
| 2026-04-29 20:11 | 35.52925 | 24.16289 | 479 ft | 23 kts | 291° |
| 2026-04-29 20:12 | 35.52977 | 24.16128 | 474 ft | 20 kts | 291° |
| 2026-04-29 20:12 | 35.53034 | 24.15954 | 468 ft | 24 kts | 291° |
| 2026-04-29 20:12 | 35.53087 | 24.15787 | 472 ft | 21 kts | 291° |
| 2026-04-29 20:12 | 35.53141 | 24.15617 | 469 ft | 21 kts | 291° |
| 2026-04-29 20:13 | 35.53199 | 24.15435 | 466 ft | 25 kts | 291° |
| 2026-04-29 20:13 | 35.53241 | 24.15300 | 463 ft | 27 kts | 291° |
| 2026-04-29 20:13 | 35.53336 | 24.15036 | 457 ft | 23 kts | 298° |
| 2026-04-29 20:13 | 35.53401 | 24.14841 | 455 ft | 27 kts | 286° |
| 2026-04-29 20:14 | 35.53473 | 24.14621 | 451 ft | 25 kts | 292° |
| 2026-04-29 20:14 | 35.53529 | 24.14447 | 448 ft | 20 kts | 292° |
| 2026-04-29 20:14 | 35.53589 | 24.14279 | 445 ft | 20 kts | 284° |
| 2026-04-29 20:14 | 35.53639 | 24.14104 | 429 ft | 24 kts | 293° |
| 2026-04-29 20:15 | 35.53707 | 24.13965 | 432 ft | 13 kts | 349° |
| 2026-04-29 20:15 | 35.53809 | 24.14011 | 438 ft | 17 kts | 20° |
| 2026-04-29 20:15 | 35.53909 | 24.14043 | 433 ft | 0 kts | 23° |
| 2026-04-29 20:15 | 35.53909 | 24.14044 | 433 ft | 0 kts | 23° |